CYP471 LGMK-LCLK
Flight info
| Callsign | CYP471 |
|---|---|
| Flight time | 1h 6m |
| Altitude | 37000 |
| Route | LETSO UR32 IKARO UL609 RDS UL995 ULFIT UM978 TOSKA DCT BONEK |
| Aircraft | A320/M-SDE3FGHIRWY/LB1 |
Departure
| Time | 2026-04-22 04:26 |
|---|---|
| Airport | Mykonos Island National Airport (LGMK) |
Arrival
| Time | 2026-04-22 05:32 |
|---|---|
| Airport | Larnaca International Airport (LCLK) |
| Time | Latitude | Longitude | Altitude | Speed | Heading |
|---|---|---|---|---|---|
| 2026-04-22 03:58 | 37.43427 | 25.34678 | 407 ft | 0 kts | 251° |
| 2026-04-22 04:17 | 37.43428 | 25.34685 | 407 ft | 3 kts | 251° |
| 2026-04-22 04:17 | 37.43433 | 25.34711 | 407 ft | 3 kts | 281° |
| 2026-04-22 04:17 | 37.43425 | 25.34736 | 408 ft | 3 kts | 310° |
| 2026-04-22 04:17 | 37.43409 | 25.34753 | 408 ft | 3 kts | 340° |
| 2026-04-22 04:18 | 37.43404 | 25.34755 | 408 ft | 0 kts | 341° |
| 2026-04-22 04:21 | 37.43440 | 25.34739 | 408 ft | 12 kts | 341° |
| 2026-04-22 04:21 | 37.43511 | 25.34708 | 408 ft | 4 kts | 340° |
| 2026-04-22 04:21 | 37.43525 | 25.34701 | 408 ft | 2 kts | 340° |
| 2026-04-22 04:21 | 37.43542 | 25.34694 | 404 ft | 7 kts | 340° |
| 2026-04-22 04:22 | 37.43585 | 25.34674 | 407 ft | 6 kts | 340° |
| 2026-04-22 04:22 | 37.43618 | 25.34678 | 408 ft | 4 kts | 19° |
| 2026-04-22 04:22 | 37.43641 | 25.34692 | 406 ft | 6 kts | 28° |
| 2026-04-22 04:22 | 37.43667 | 25.34710 | 408 ft | 4 kts | 28° |
| 2026-04-22 04:23 | 37.43719 | 25.34730 | 411 ft | 12 kts | 355° |
| 2026-04-22 04:23 | 37.43800 | 25.34695 | 411 ft | 12 kts | 340° |
| 2026-04-22 04:23 | 37.43914 | 25.34644 | 410 ft | 21 kts | 340° |
| 2026-04-22 04:23 | 37.44056 | 25.34580 | 407 ft | 23 kts | 341° |
| 2026-04-22 04:24 | 37.44184 | 25.34524 | 407 ft | 10 kts | 341° |
| 2026-04-22 04:24 | 37.44232 | 25.34498 | 402 ft | 3 kts | 317° |
| 2026-04-22 04:24 | 37.44257 | 25.34460 | 405 ft | 8 kts | 313° |
| 2026-04-22 04:24 | 37.44297 | 25.34446 | 404 ft | 6 kts | 28° |
| 2026-04-22 04:25 | 37.44282 | 25.34479 | 405 ft | 5 kts | 148° |
| 2026-04-22 04:25 | 37.44209 | 25.34510 | 406 ft | 32 kts | 166° |
| 2026-04-22 04:25 | 37.43737 | 25.34721 | 407 ft | 106 kts | 160° |
| 2026-04-22 04:25 | 37.42856 | 25.35112 | 427 ft | 159 kts | 161° |
| 2026-04-22 04:26 | 37.41796 | 25.35532 | 1043 ft | 154 kts | 162° |
| 2026-04-22 04:26 | 37.40803 | 25.35964 | 1678 ft | 153 kts | 160° |
| 2026-04-22 04:26 | 37.39829 | 25.36409 | 2303 ft | 143 kts | 161° |
| 2026-04-22 04:26 | 37.38841 | 25.36859 | 2453 ft | 160 kts | 161° |
| 2026-04-22 04:27 | 37.37756 | 25.37346 | 2712 ft | 170 kts | 162° |
| 2026-04-22 04:27 | 37.36578 | 25.37870 | 2874 ft | 188 kts | 162° |
| 2026-04-22 04:27 | 37.35335 | 25.38520 | 3117 ft | 201 kts | 146° |
| 2026-04-22 04:27 | 37.34485 | 25.39961 | 3376 ft | 216 kts | 108° |
| 2026-04-22 04:28 | 37.34446 | 25.41908 | 3572 ft | 234 kts | 83° |
| 2026-04-22 04:28 | 37.34727 | 25.44005 | 3798 ft | 252 kts | 81° |
| 2026-04-22 04:28 | 37.35073 | 25.46226 | 4099 ft | 265 kts | 79° |
| 2026-04-22 04:28 | 37.35462 | 25.48518 | 4507 ft | 272 kts | 79° |
| 2026-04-22 04:29 | 37.35824 | 25.50863 | 4972 ft | 275 kts | 80° |
| 2026-04-22 04:29 | 37.36210 | 25.53232 | 5414 ft | 279 kts | 74° |
| 2026-04-22 04:29 | 37.37073 | 25.55426 | 5862 ft | 284 kts | 52° |
| 2026-04-22 04:29 | 37.38474 | 25.57185 | 6352 ft | 285 kts | 41° |
| 2026-04-22 04:30 | 37.39943 | 25.58847 | 6825 ft | 286 kts | 42° |
| 2026-04-22 04:30 | 37.41403 | 25.60575 | 7265 ft | 290 kts | 43° |
| 2026-04-22 04:30 | 37.42846 | 25.62354 | 7727 ft | 291 kts | 44° |
| 2026-04-22 04:30 | 37.44293 | 25.64162 | 8142 ft | 295 kts | 43° |
| 2026-04-22 04:31 | 37.45781 | 25.65971 | 8536 ft | 298 kts | 46° |
| 2026-04-22 04:31 | 37.47105 | 25.67990 | 8974 ft | 300 kts | 51° |
| 2026-04-22 04:31 | 37.48391 | 25.70063 | 9370 ft | 302 kts | 51° |
| 2026-04-22 04:31 | 37.49684 | 25.72167 | 9748 ft | 305 kts | 51° |
| 2026-04-22 04:32 | 37.50991 | 25.74305 | 10033 ft | 311 kts | 51° |
| 2026-04-22 04:32 | 37.52318 | 25.76473 | 10353 ft | 315 kts | 51° |
| 2026-04-22 04:32 | 37.53680 | 25.78690 | 10489 ft | 325 kts | 51° |
| 2026-04-22 04:32 | 37.55103 | 25.81009 | 10619 ft | 346 kts | 51° |
| 2026-04-22 04:33 | 37.56627 | 25.83492 | 10823 ft | 367 kts | 51° |
| 2026-04-22 04:33 | 37.58209 | 25.86081 | 11366 ft | 376 kts | 51° |
| 2026-04-22 04:33 | 37.59813 | 25.88708 | 12011 ft | 381 kts | 50° |
| 2026-04-22 04:33 | 37.61435 | 25.91378 | 12653 ft | 385 kts | 50° |
| 2026-04-22 04:34 | 37.63068 | 25.94071 | 13315 ft | 388 kts | 50° |
| 2026-04-22 04:34 | 37.64714 | 25.96784 | 13946 ft | 391 kts | 50° |
| 2026-04-22 04:34 | 37.66379 | 25.99530 | 14561 ft | 395 kts | 50° |
| 2026-04-22 04:34 | 37.68054 | 26.02292 | 15169 ft | 398 kts | 50° |
| 2026-04-22 04:35 | 37.69483 | 26.05310 | 15739 ft | 406 kts | 66° |
| 2026-04-22 04:35 | 37.70153 | 26.08795 | 16298 ft | 413 kts | 85° |
| 2026-04-22 04:35 | 37.69918 | 26.12417 | 16847 ft | 418 kts | 105° |
| 2026-04-22 04:35 | 37.68782 | 26.15789 | 17377 ft | 420 kts | 123° |
| 2026-04-22 04:36 | 37.67241 | 26.18882 | 17894 ft | 424 kts | 120° |
| 2026-04-22 04:36 | 37.65934 | 26.22237 | 18417 ft | 428 kts | 114° |
| 2026-04-22 04:36 | 37.64834 | 26.25747 | 18953 ft | 432 kts | 110° |
| 2026-04-22 04:36 | 37.63815 | 26.29321 | 19477 ft | 435 kts | 110° |
| 2026-04-22 04:37 | 37.62777 | 26.32927 | 19972 ft | 438 kts | 111° |
| 2026-04-22 04:37 | 37.61676 | 26.36521 | 20442 ft | 441 kts | 112° |
| 2026-04-22 04:37 | 37.60501 | 26.40110 | 20908 ft | 444 kts | 114° |
| 2026-04-22 04:37 | 37.59264 | 26.43700 | 21356 ft | 447 kts | 115° |
| 2026-04-22 04:38 | 37.57993 | 26.47288 | 21793 ft | 450 kts | 115° |
| 2026-04-22 04:38 | 37.56705 | 26.50896 | 22208 ft | 452 kts | 115° |
| 2026-04-22 04:38 | 37.55419 | 26.54522 | 22604 ft | 455 kts | 115° |
| 2026-04-22 04:38 | 37.54133 | 26.58193 | 22993 ft | 458 kts | 115° |
| 2026-04-22 04:39 | 37.52858 | 26.61878 | 23374 ft | 461 kts | 114° |
| 2026-04-22 04:39 | 37.51578 | 26.65593 | 23738 ft | 463 kts | 115° |
| 2026-04-22 04:39 | 37.50286 | 26.69332 | 24084 ft | 466 kts | 115° |
| 2026-04-22 04:39 | 37.48989 | 26.73080 | 24425 ft | 468 kts | 115° |
| 2026-04-22 04:40 | 37.47681 | 26.76849 | 24768 ft | 471 kts | 115° |
| 2026-04-22 04:40 | 37.46363 | 26.80632 | 25074 ft | 473 kts | 115° |
| 2026-04-22 04:40 | 37.45034 | 26.84438 | 25395 ft | 475 kts | 115° |
| 2026-04-22 04:40 | 37.43699 | 26.88256 | 25697 ft | 478 kts | 115° |
| 2026-04-22 04:41 | 37.42359 | 26.92087 | 26001 ft | 480 kts | 115° |
| 2026-04-22 04:41 | 37.41012 | 26.95942 | 26300 ft | 482 kts | 115° |
| 2026-04-22 04:41 | 37.39661 | 26.99808 | 26579 ft | 484 kts | 115° |
| 2026-04-22 04:41 | 37.38301 | 27.03691 | 26858 ft | 486 kts | 115° |
| 2026-04-22 04:42 | 37.36935 | 27.07579 | 27124 ft | 488 kts | 115° |
| 2026-04-22 04:42 | 37.35559 | 27.11489 | 27367 ft | 490 kts | 115° |
| 2026-04-22 04:42 | 37.34174 | 27.15407 | 27625 ft | 491 kts | 115° |
| 2026-04-22 04:42 | 37.33255 | 27.18006 | 27789 ft | 492 kts | 115° |
| 2026-04-22 04:43 | 37.31864 | 27.21946 | 28031 ft | 494 kts | 115° |
| 2026-04-22 04:43 | 37.30467 | 27.25903 | 28248 ft | 496 kts | 115° |
| 2026-04-22 04:43 | 37.29063 | 27.29864 | 28462 ft | 497 kts | 115° |
| 2026-04-22 04:43 | 37.27651 | 27.33841 | 28672 ft | 499 kts | 115° |
| 2026-04-22 04:44 | 37.26237 | 27.37819 | 28946 ft | 499 kts | 115° |
| 2026-04-22 04:44 | 37.24825 | 27.41792 | 29232 ft | 498 kts | 115° |
| 2026-04-22 04:44 | 37.23414 | 27.45757 | 29520 ft | 497 kts | 115° |
| 2026-04-22 04:44 | 37.22003 | 27.49718 | 29807 ft | 497 kts | 115° |
| 2026-04-22 04:45 | 37.20592 | 27.53675 | 30061 ft | 497 kts | 115° |
| 2026-04-22 04:45 | 37.19180 | 27.57629 | 30337 ft | 497 kts | 115° |
| 2026-04-22 04:45 | 37.17765 | 27.61580 | 30601 ft | 496 kts | 115° |
| 2026-04-22 04:45 | 37.16349 | 27.65528 | 30875 ft | 496 kts | 115° |
| 2026-04-22 04:46 | 37.14932 | 27.69474 | 31169 ft | 495 kts | 115° |
| 2026-04-22 04:46 | 37.13518 | 27.73405 | 31451 ft | 494 kts | 115° |
| 2026-04-22 04:46 | 37.12106 | 27.77329 | 31703 ft | 494 kts | 115° |
| 2026-04-22 04:46 | 37.10693 | 27.81257 | 31974 ft | 494 kts | 115° |
| 2026-04-22 04:47 | 37.09283 | 27.85176 | 32240 ft | 493 kts | 116° |
| 2026-04-22 04:47 | 37.07871 | 27.89095 | 32486 ft | 493 kts | 116° |
| 2026-04-22 04:47 | 37.06454 | 27.93010 | 32717 ft | 493 kts | 116° |
| 2026-04-22 04:47 | 37.05038 | 27.96916 | 32978 ft | 493 kts | 116° |
| 2026-04-22 04:48 | 37.03620 | 28.00824 | 33234 ft | 492 kts | 116° |
| 2026-04-22 04:48 | 37.02205 | 28.04719 | 33504 ft | 491 kts | 116° |
| 2026-04-22 04:48 | 37.00790 | 28.08606 | 33743 ft | 491 kts | 116° |
| 2026-04-22 04:48 | 36.99376 | 28.12497 | 33988 ft | 491 kts | 116° |
| 2026-04-22 04:49 | 36.97961 | 28.16388 | 34234 ft | 490 kts | 116° |
| 2026-04-22 04:49 | 36.96552 | 28.20265 | 34466 ft | 490 kts | 116° |
| 2026-04-22 04:49 | 36.95140 | 28.24137 | 34709 ft | 489 kts | 116° |
| 2026-04-22 04:49 | 36.93724 | 28.28007 | 34930 ft | 489 kts | 116° |
| 2026-04-22 04:50 | 36.92305 | 28.31880 | 35000 ft | 491 kts | 116° |
| 2026-04-22 04:50 | 36.89449 | 28.39659 | 34996 ft | 493 kts | 116° |
| 2026-04-22 04:51 | 36.86581 | 28.47452 | 35000 ft | 494 kts | 116° |
| 2026-04-22 04:51 | 36.83692 | 28.55290 | 35004 ft | 500 kts | 116° |
| 2026-04-22 04:52 | 36.80811 | 28.63079 | 35002 ft | 505 kts | 116° |
| 2026-04-22 04:52 | 36.77860 | 28.71035 | 35003 ft | 506 kts | 116° |
| 2026-04-22 04:53 | 36.74902 | 28.79001 | 35006 ft | 506 kts | 116° |
| 2026-04-22 04:53 | 36.71933 | 28.86964 | 35013 ft | 506 kts | 117° |
| 2026-04-22 04:54 | 36.68958 | 28.94916 | 35018 ft | 506 kts | 117° |
| 2026-04-22 04:54 | 36.65978 | 29.02871 | 35021 ft | 507 kts | 117° |
| 2026-04-22 04:55 | 36.62994 | 29.10830 | 35015 ft | 507 kts | 117° |
| 2026-04-22 04:55 | 36.60002 | 29.18785 | 35015 ft | 507 kts | 117° |
| 2026-04-22 04:56 | 36.57005 | 29.26723 | 35016 ft | 507 kts | 117° |
| 2026-04-22 04:56 | 36.54000 | 29.34666 | 35017 ft | 507 kts | 117° |
| 2026-04-22 04:57 | 36.50990 | 29.42602 | 35023 ft | 508 kts | 117° |
| 2026-04-22 04:57 | 36.47974 | 29.50532 | 35019 ft | 507 kts | 117° |
| 2026-04-22 04:58 | 36.44954 | 29.58460 | 35019 ft | 507 kts | 117° |
| 2026-04-22 04:58 | 36.41937 | 29.66377 | 35023 ft | 507 kts | 117° |
| 2026-04-22 04:59 | 36.38904 | 29.74297 | 35024 ft | 507 kts | 117° |
| 2026-04-22 04:59 | 36.35869 | 29.82201 | 35032 ft | 507 kts | 117° |
| 2026-04-22 05:00 | 36.32825 | 29.90099 | 35035 ft | 507 kts | 117° |
| 2026-04-22 05:00 | 36.29775 | 29.97993 | 35032 ft | 507 kts | 117° |
| 2026-04-22 05:01 | 36.26740 | 30.05829 | 35036 ft | 507 kts | 117° |
| 2026-04-22 05:01 | 36.23685 | 30.13711 | 35036 ft | 507 kts | 117° |
| 2026-04-22 05:02 | 36.20629 | 30.21580 | 35039 ft | 507 kts | 117° |
| 2026-04-22 05:02 | 36.17542 | 30.29502 | 35042 ft | 507 kts | 118° |
| 2026-04-22 05:03 | 36.14485 | 30.37296 | 35045 ft | 507 kts | 118° |
| 2026-04-22 05:03 | 36.11434 | 30.45080 | 35047 ft | 507 kts | 118° |
| 2026-04-22 05:04 | 36.08358 | 30.52939 | 35053 ft | 507 kts | 118° |
| 2026-04-22 05:04 | 36.05276 | 30.60776 | 35055 ft | 507 kts | 118° |
| 2026-04-22 05:05 | 36.02188 | 30.68605 | 35054 ft | 507 kts | 118° |
| 2026-04-22 05:05 | 35.99094 | 30.76429 | 35055 ft | 507 kts | 118° |
| 2026-04-22 05:06 | 35.95996 | 30.84251 | 35057 ft | 506 kts | 118° |
| 2026-04-22 05:06 | 35.92897 | 30.92052 | 35058 ft | 506 kts | 118° |
| 2026-04-22 05:07 | 35.89793 | 30.99849 | 35064 ft | 506 kts | 118° |
| 2026-04-22 05:07 | 35.86677 | 31.07627 | 35062 ft | 506 kts | 118° |
| 2026-04-22 05:08 | 35.83565 | 31.15392 | 35065 ft | 505 kts | 118° |
| 2026-04-22 05:08 | 35.80453 | 31.23154 | 35064 ft | 505 kts | 118° |
| 2026-04-22 05:09 | 35.77338 | 31.30907 | 35064 ft | 505 kts | 118° |
| 2026-04-22 05:09 | 35.74213 | 31.38650 | 35064 ft | 504 kts | 118° |
| 2026-04-22 05:10 | 35.71085 | 31.46379 | 35063 ft | 504 kts | 118° |
| 2026-04-22 05:10 | 35.67959 | 31.54109 | 35068 ft | 504 kts | 118° |
| 2026-04-22 05:11 | 35.64829 | 31.61830 | 35066 ft | 504 kts | 118° |
| 2026-04-22 05:11 | 35.61695 | 31.69537 | 35066 ft | 504 kts | 118° |
| 2026-04-22 05:12 | 35.58552 | 31.77235 | 35067 ft | 504 kts | 118° |
| 2026-04-22 05:12 | 35.55401 | 31.84929 | 35074 ft | 504 kts | 118° |
| 2026-04-22 05:13 | 35.52245 | 31.92617 | 35075 ft | 504 kts | 118° |
| 2026-04-22 05:13 | 35.49088 | 32.00297 | 35072 ft | 504 kts | 118° |
| 2026-04-22 05:14 | 35.45929 | 32.07975 | 35068 ft | 504 kts | 118° |
| 2026-04-22 05:14 | 35.42770 | 32.15645 | 35074 ft | 504 kts | 118° |
| 2026-04-22 05:15 | 35.39599 | 32.23304 | 35074 ft | 504 kts | 119° |
| 2026-04-22 05:15 | 35.36418 | 32.30972 | 35069 ft | 504 kts | 119° |
| 2026-04-22 05:16 | 35.33237 | 32.38624 | 35067 ft | 504 kts | 119° |
| 2026-04-22 05:16 | 35.31650 | 32.42433 | 34449 ft | 501 kts | 119° |
| 2026-04-22 05:16 | 35.30063 | 32.46242 | 33466 ft | 503 kts | 119° |
| 2026-04-22 05:16 | 35.28472 | 32.50060 | 32461 ft | 504 kts | 119° |
| 2026-04-22 05:17 | 35.26877 | 32.53883 | 31435 ft | 505 kts | 118° |
| 2026-04-22 05:17 | 35.25284 | 32.57693 | 30078 ft | 501 kts | 118° |
| 2026-04-22 05:17 | 35.23693 | 32.61491 | 28220 ft | 503 kts | 118° |
| 2026-04-22 05:17 | 35.22090 | 32.65311 | 26179 ft | 505 kts | 118° |
| 2026-04-22 05:18 | 35.18889 | 32.72934 | 22534 ft | 497 kts | 118° |
| 2026-04-22 05:18 | 35.17327 | 32.76659 | 21057 ft | 487 kts | 118° |
| 2026-04-22 05:18 | 35.15796 | 32.80302 | 19653 ft | 477 kts | 118° |
| 2026-04-22 05:19 | 35.14293 | 32.83870 | 18328 ft | 473 kts | 118° |
| 2026-04-22 05:19 | 35.12789 | 32.87425 | 17613 ft | 467 kts | 118° |
| 2026-04-22 05:19 | 35.11314 | 32.90914 | 16838 ft | 455 kts | 118° |
| 2026-04-22 05:19 | 35.09901 | 32.94257 | 15530 ft | 446 kts | 118° |
| 2026-04-22 05:20 | 35.08468 | 32.97634 | 14230 ft | 437 kts | 118° |
| 2026-04-22 05:20 | 35.07090 | 33.00879 | 13412 ft | 419 kts | 118° |
| 2026-04-22 05:20 | 35.05776 | 33.03976 | 12902 ft | 408 kts | 118° |
| 2026-04-22 05:20 | 35.04916 | 33.06006 | 12490 ft | 405 kts | 118° |
| 2026-04-22 05:21 | 35.03622 | 33.09052 | 11856 ft | 402 kts | 118° |
| 2026-04-22 05:21 | 35.02338 | 33.12059 | 11213 ft | 398 kts | 118° |
| 2026-04-22 05:21 | 35.01110 | 33.15020 | 10946 ft | 384 kts | 113° |
| 2026-04-22 05:21 | 35.00212 | 33.18014 | 10800 ft | 368 kts | 109° |
| 2026-04-22 05:22 | 34.99384 | 33.20909 | 10611 ft | 354 kts | 109° |
| 2026-04-22 05:22 | 34.98609 | 33.23639 | 10367 ft | 326 kts | 109° |
| 2026-04-22 05:22 | 34.97885 | 33.26161 | 9935 ft | 307 kts | 109° |
| 2026-04-22 05:22 | 34.97185 | 33.28582 | 9721 ft | 300 kts | 109° |
| 2026-04-22 05:23 | 34.96487 | 33.30968 | 9623 ft | 299 kts | 110° |
| 2026-04-22 05:23 | 34.95779 | 33.33348 | 9496 ft | 297 kts | 110° |
| 2026-04-22 05:23 | 34.95088 | 33.35716 | 9375 ft | 297 kts | 109° |
| 2026-04-22 05:23 | 34.94406 | 33.38090 | 9251 ft | 296 kts | 109° |
| 2026-04-22 05:24 | 34.93727 | 33.40458 | 9118 ft | 296 kts | 109° |
| 2026-04-22 05:24 | 34.93047 | 33.42825 | 8682 ft | 297 kts | 109° |
| 2026-04-22 05:24 | 34.92360 | 33.45202 | 8268 ft | 295 kts | 109° |
| 2026-04-22 05:24 | 34.91678 | 33.47545 | 7890 ft | 292 kts | 109° |
| 2026-04-22 05:25 | 34.91002 | 33.49858 | 7293 ft | 288 kts | 109° |
| 2026-04-22 05:25 | 34.90333 | 33.52135 | 6718 ft | 284 kts | 109° |
| 2026-04-22 05:25 | 34.89668 | 33.54408 | 6257 ft | 285 kts | 109° |
| 2026-04-22 05:25 | 34.89013 | 33.56649 | 5787 ft | 278 kts | 109° |
| 2026-04-22 05:26 | 34.88362 | 33.58882 | 5319 ft | 280 kts | 109° |
| 2026-04-22 05:26 | 34.87819 | 33.61146 | 4912 ft | 277 kts | 98° |
| 2026-04-22 05:26 | 34.87810 | 33.63477 | 4507 ft | 274 kts | 81° |
| 2026-04-22 05:26 | 34.88343 | 33.65694 | 4049 ft | 272 kts | 67° |
| 2026-04-22 05:27 | 34.89061 | 33.67820 | 3638 ft | 270 kts | 67° |
| 2026-04-22 05:27 | 34.89776 | 33.69937 | 3178 ft | 270 kts | 67° |
| 2026-04-22 05:27 | 34.90479 | 33.72024 | 2931 ft | 260 kts | 68° |
| 2026-04-22 05:27 | 34.91141 | 33.73989 | 2799 ft | 239 kts | 68° |
| 2026-04-22 05:28 | 34.91748 | 33.75790 | 2701 ft | 225 kts | 68° |
| 2026-04-22 05:28 | 34.92421 | 33.77485 | 2586 ft | 221 kts | 51° |
| 2026-04-22 05:28 | 34.93638 | 33.78568 | 2517 ft | 219 kts | 17° |
| 2026-04-22 05:28 | 34.95137 | 33.78645 | 2468 ft | 218 kts | 343° |
| 2026-04-22 05:29 | 34.96419 | 33.77708 | 2360 ft | 215 kts | 309° |
| 2026-04-22 05:29 | 34.97062 | 33.76081 | 2313 ft | 217 kts | 277° |
| 2026-04-22 05:29 | 34.96873 | 33.74283 | 2188 ft | 216 kts | 243° |
| 2026-04-22 05:29 | 34.95955 | 33.72862 | 1979 ft | 215 kts | 224° |
| 2026-04-22 05:30 | 34.94886 | 33.71576 | 1724 ft | 216 kts | 224° |
| 2026-04-22 05:30 | 34.93821 | 33.70287 | 1473 ft | 216 kts | 224° |
| 2026-04-22 05:30 | 34.92767 | 33.69004 | 1245 ft | 212 kts | 225° |
| 2026-04-22 05:30 | 34.91752 | 33.67760 | 951 ft | 203 kts | 226° |
| 2026-04-22 05:31 | 34.90782 | 33.66553 | 736 ft | 195 kts | 226° |
| 2026-04-22 05:31 | 34.89871 | 33.65440 | 586 ft | 177 kts | 225° |
| 2026-04-22 05:31 | 34.89053 | 33.64457 | 370 ft | 158 kts | 226° |
| 2026-04-22 05:31 | 34.88300 | 33.63531 | 70 ft | 150 kts | 225° |
| 2026-04-22 05:32 | 34.87613 | 33.62687 | 19 ft | 122 kts | 225° |
| 2026-04-22 05:32 | 34.87251 | 33.62245 | 18 ft | 43 kts | 225° |
| 2026-04-22 05:32 | 34.87102 | 33.62058 | 22 ft | 19 kts | 226° |
| 2026-04-22 05:32 | 34.87034 | 33.61964 | 21 ft | 10 kts | 233° |
| 2026-04-22 05:33 | 34.86994 | 33.61877 | 22 ft | 15 kts | 247° |
| 2026-04-22 05:33 | 34.86961 | 33.61749 | 24 ft | 11 kts | 255° |
| 2026-04-22 05:33 | 34.86942 | 33.61660 | 21 ft | 11 kts | 256° |
| 2026-04-22 05:33 | 34.86924 | 33.61573 | 19 ft | 10 kts | 257° |
| 2026-04-22 05:34 | 34.86908 | 33.61494 | 19 ft | 9 kts | 256° |
| 2026-04-22 05:34 | 34.86882 | 33.61432 | 18 ft | 8 kts | 233° |
| 2026-04-22 05:34 | 34.86844 | 33.61387 | 20 ft | 7 kts | 222° |